METAR Data
IDs: Format: Raw Decoded Include TAF

Data at: 1100 UTC 28 Sep 2021

ZWWW 281030Z 01004MPS 330V030 CAVOK 21/M01 Q1015 NOSIG